sensor_id;sensor_type;location;lat;lon;timestamp;P1;durP1;ratioP1;P2;durP2;ratioP2
64037;SDS011;54641;50.168;8.492;2022-12-24T00:01:44;5.10;;;1.10;;
64037;SDS011;54641;50.168;8.492;2022-12-24T00:04:14;10.00;;;1.60;;
64037;SDS011;54641;50.168;8.492;2022-12-24T00:06:45;5.50;;;1.40;;
64037;SDS011;54641;50.168;8.492;2022-12-24T00:09:15;5.40;;;1.40;;
64037;SDS011;54641;50.168;8.492;2022-12-24T00:11:46;5.60;;;1.10;;
64037;SDS011;54641;50.168;8.492;2022-12-24T00:14:16;6.40;;;1.50;;
64037;SDS011;54641;50.168;8.492;2022-12-24T00:16:47;5.70;;;1.30;;
64037;SDS011;54641;50.168;8.492;2022-12-24T00:19:17;12.20;;;1.60;;
64037;SDS011;54641;50.168;8.492;2022-12-24T00:21:47;7.50;;;1.30;;
64037;SDS011;54641;50.168;8.492;2022-12-24T00:24:18;4.70;;;1.00;;
64037;SDS011;54641;50.168;8.492;2022-12-24T00:26:48;5.90;;;1.30;;
64037;SDS011;54641;50.168;8.492;2022-12-24T00:29:19;6.40;;;1.20;;
64037;SDS011;54641;50.168;8.492;2022-12-24T00:31:49;9.10;;;2.20;;
64037;SDS011;54641;50.168;8.492;2022-12-24T00:34:21;8.80;;;1.60;;
64037;SDS011;54641;50.168;8.492;2022-12-24T00:36:52;6.70;;;1.00;;
64037;SDS011;54641;50.168;8.492;2022-12-24T00:39:22;4.50;;;1.10;;
64037;SDS011;54641;50.168;8.492;2022-12-24T00:41:53;12.40;;;1.60;;
64037;SDS011;54641;50.168;8.492;2022-12-24T00:44:23;8.60;;;1.20;;
64037;SDS011;54641;50.168;8.492;2022-12-24T00:46:53;6.20;;;0.90;;
64037;SDS011;54641;50.168;8.492;2022-12-24T00:49:24;7.50;;;2.10;;
64037;SDS011;54641;50.168;8.492;2022-12-24T00:51:54;7.80;;;1.10;;
64037;SDS011;54641;50.168;8.492;2022-12-24T00:54:24;5.60;;;1.00;;
64037;SDS011;54641;50.168;8.492;2022-12-24T00:56:55;9.60;;;1.60;;
64037;SDS011;54641;50.168;8.492;2022-12-24T00:59:25;7.00;;;1.50;;
64037;SDS011;54641;50.168;8.492;2022-12-24T01:01:56;10.80;;;2.00;;
64037;SDS011;54641;50.168;8.492;2022-12-24T01:04:26;7.60;;;1.40;;
64037;SDS011;54641;50.168;8.492;2022-12-24T01:07:14;4.00;;;1.20;;
64037;SDS011;54641;50.168;8.492;2022-12-24T01:09:44;5.40;;;1.10;;
64037;SDS011;54641;50.168;8.492;2022-12-24T01:12:15;10.00;;;1.90;;
64037;SDS011;54641;50.168;8.492;2022-12-24T01:14:45;9.50;;;2.30;;
64037;SDS011;54641;50.168;8.492;2022-12-24T01:17:15;9.50;;;1.60;;
64037;SDS011;54641;50.168;8.492;2022-12-24T01:19:46;8.70;;;1.50;;
64037;SDS011;54641;50.168;8.492;2022-12-24T01:22:16;3.70;;;0.70;;
64037;SDS011;54641;50.168;8.492;2022-12-24T01:24:47;6.20;;;1.40;;
64037;SDS011;54641;50.168;8.492;2022-12-24T01:27:17;9.60;;;1.30;;
64037;SDS011;54641;50.168;8.492;2022-12-24T01:29:48;9.90;;;1.50;;
64037;SDS011;54641;50.168;8.492;2022-12-24T01:32:18;9.00;;;1.10;;
64037;SDS011;54641;50.168;8.492;2022-12-24T01:34:48;7.80;;;1.30;;
64037;SDS011;54641;50.168;8.492;2022-12-24T01:37:19;7.40;;;1.50;;
64037;SDS011;54641;50.168;8.492;2022-12-24T01:39:49;6.30;;;1.20;;
64037;SDS011;54641;50.168;8.492;2022-12-24T01:42:40;8.40;;;1.20;;
64037;SDS011;54641;50.168;8.492;2022-12-24T01:45:38;9.90;;;1.80;;
64037;SDS011;54641;50.168;8.492;2022-12-24T01:48:13;10.00;;;2.30;;
64037;SDS011;54641;50.168;8.492;2022-12-24T01:50:48;6.90;;;1.70;;
64037;SDS011;54641;50.168;8.492;2022-12-24T01:53:21;9.10;;;1.20;;
64037;SDS011;54641;50.168;8.492;2022-12-24T01:55:53;5.90;;;1.50;;
64037;SDS011;54641;50.168;8.492;2022-12-24T01:58:24;10.40;;;1.40;;
64037;SDS011;54641;50.168;8.492;2022-12-24T02:00:55;6.60;;;1.40;;
64037;SDS011;54641;50.168;8.492;2022-12-24T02:03:26;6.10;;;1.40;;
64037;SDS011;54641;50.168;8.492;2022-12-24T02:05:57;6.20;;;1.50;;
64037;SDS011;54641;50.168;8.492;2022-12-24T02:08:28;10.50;;;1.50;;
64037;SDS011;54641;50.168;8.492;2022-12-24T02:11:11;13.90;;;1.50;;
64037;SDS011;54641;50.168;8.492;2022-12-24T02:13:43;6.40;;;1.40;;
64037;SDS011;54641;50.168;8.492;2022-12-24T02:16:19;11.80;;;1.60;;
64037;SDS011;54641;50.168;8.492;2022-12-24T02:18:58;9.60;;;2.30;;
64037;SDS011;54641;50.168;8.492;2022-12-24T02:21:45;6.80;;;1.30;;
64037;SDS011;54641;50.168;8.492;2022-12-24T02:27:27;15.00;;;1.80;;
64037;SDS011;54641;50.168;8.492;2022-12-24T02:30:11;8.20;;;1.60;;
64037;SDS011;54641;50.168;8.492;2022-12-24T02:32:49;15.40;;;2.50;;
64037;SDS011;54641;50.168;8.492;2022-12-24T02:35:29;8.60;;;2.20;;
64037;SDS011;54641;50.168;8.492;2022-12-24T02:38:04;7.80;;;1.70;;
64037;SDS011;54641;50.168;8.492;2022-12-24T02:40:39;10.10;;;1.50;;
64037;SDS011;54641;50.168;8.492;2022-12-24T02:43:15;10.10;;;2.10;;
64037;SDS011;54641;50.168;8.492;2022-12-24T02:45:50;5.30;;;1.10;;
64037;SDS011;54641;50.168;8.492;2022-12-24T02:48:26;9.00;;;1.50;;
64037;SDS011;54641;50.168;8.492;2022-12-24T02:51:00;10.50;;;1.70;;
64037;SDS011;54641;50.168;8.492;2022-12-24T02:53:32;6.00;;;1.40;;
64037;SDS011;54641;50.168;8.492;2022-12-24T02:56:07;11.70;;;2.90;;
64037;SDS011;54641;50.168;8.492;2022-12-24T02:59:01;7.30;;;1.30;;
64037;SDS011;54641;50.168;8.492;2022-12-24T03:01:42;5.20;;;1.80;;
64037;SDS011;54641;50.168;8.492;2022-12-24T03:04:20;6.90;;;1.50;;
64037;SDS011;54641;50.168;8.492;2022-12-24T03:07:08;12.00;;;3.00;;
64037;SDS011;54641;50.168;8.492;2022-12-24T03:09:47;10.00;;;1.90;;
64037;SDS011;54641;50.168;8.492;2022-12-24T03:12:22;9.10;;;1.60;;
64037;SDS011;54641;50.168;8.492;2022-12-24T03:14:54;10.70;;;1.90;;
64037;SDS011;54641;50.168;8.492;2022-12-24T03:17:25;13.80;;;1.70;;
64037;SDS011;54641;50.168;8.492;2022-12-24T03:19:56;10.40;;;1.50;;
64037;SDS011;54641;50.168;8.492;2022-12-24T03:22:29;8.40;;;1.80;;
64037;SDS011;54641;50.168;8.492;2022-12-24T03:25:00;11.00;;;2.20;;
64037;SDS011;54641;50.168;8.492;2022-12-24T03:27:31;12.20;;;1.70;;
64037;SDS011;54641;50.168;8.492;2022-12-24T03:30:03;6.90;;;1.80;;
64037;SDS011;54641;50.168;8.492;2022-12-24T03:32:35;13.80;;;1.70;;
64037;SDS011;54641;50.168;8.492;2022-12-24T03:35:06;10.60;;;1.80;;
64037;SDS011;54641;50.168;8.492;2022-12-24T03:37:38;7.70;;;1.70;;
64037;SDS011;54641;50.168;8.492;2022-12-24T03:40:09;14.50;;;2.00;;
64037;SDS011;54641;50.168;8.492;2022-12-24T03:42:39;12.20;;;1.70;;
64037;SDS011;54641;50.168;8.492;2022-12-24T03:45:10;11.40;;;2.10;;
64037;SDS011;54641;50.168;8.492;2022-12-24T03:47:41;11.70;;;2.20;;
64037;SDS011;54641;50.168;8.492;2022-12-24T03:50:11;7.30;;;1.70;;
64037;SDS011;54641;50.168;8.492;2022-12-24T03:52:41;9.80;;;1.90;;
64037;SDS011;54641;50.168;8.492;2022-12-24T03:55:12;10.50;;;1.90;;
64037;SDS011;54641;50.168;8.492;2022-12-24T03:57:42;8.90;;;1.70;;
64037;SDS011;54641;50.168;8.492;2022-12-24T04:00:13;8.40;;;1.50;;
64037;SDS011;54641;50.168;8.492;2022-12-24T04:02:44;10.30;;;1.20;;
64037;SDS011;54641;50.168;8.492;2022-12-24T04:05:16;10.40;;;1.80;;
64037;SDS011;54641;50.168;8.492;2022-12-24T04:07:48;11.70;;;2.80;;
64037;SDS011;54641;50.168;8.492;2022-12-24T04:10:18;14.90;;;2.00;;
64037;SDS011;54641;50.168;8.492;2022-12-24T04:12:49;8.60;;;1.40;;
64037;SDS011;54641;50.168;8.492;2022-12-24T04:15:19;8.50;;;1.60;;
64037;SDS011;54641;50.168;8.492;2022-12-24T04:17:51;7.20;;;2.30;;
64037;SDS011;54641;50.168;8.492;2022-12-24T04:20:24;9.20;;;2.20;;
64037;SDS011;54641;50.168;8.492;2022-12-24T04:22:55;11.30;;;2.10;;
64037;SDS011;54641;50.168;8.492;2022-12-24T04:25:25;12.00;;;2.10;;
64037;SDS011;54641;50.168;8.492;2022-12-24T04:27:55;6.20;;;1.50;;
64037;SDS011;54641;50.168;8.492;2022-12-24T04:30:26;8.10;;;1.50;;
64037;SDS011;54641;50.168;8.492;2022-12-24T04:32:56;10.10;;;2.40;;
64037;SDS011;54641;50.168;8.492;2022-12-24T04:35:26;8.00;;;2.00;;
64037;SDS011;54641;50.168;8.492;2022-12-24T04:37:57;7.20;;;1.60;;
64037;SDS011;54641;50.168;8.492;2022-12-24T04:40:27;8.00;;;1.90;;
64037;SDS011;54641;50.168;8.492;2022-12-24T04:42:58;10.80;;;2.20;;
64037;SDS011;54641;50.168;8.492;2022-12-24T04:45:28;8.60;;;1.80;;
64037;SDS011;54641;50.168;8.492;2022-12-24T04:47:59;9.00;;;2.40;;
64037;SDS011;54641;50.168;8.492;2022-12-24T04:50:29;8.90;;;1.70;;
64037;SDS011;54641;50.168;8.492;2022-12-24T04:52:59;11.90;;;1.70;;
64037;SDS011;54641;50.168;8.492;2022-12-24T04:55:30;8.70;;;2.00;;
64037;SDS011;54641;50.168;8.492;2022-12-24T04:58:00;9.90;;;1.90;;
64037;SDS011;54641;50.168;8.492;2022-12-24T05:00:31;8.40;;;1.90;;
64037;SDS011;54641;50.168;8.492;2022-12-24T05:03:01;9.20;;;1.80;;
64037;SDS011;54641;50.168;8.492;2022-12-24T05:05:31;10.90;;;1.90;;
64037;SDS011;54641;50.168;8.492;2022-12-24T05:08:02;9.50;;;1.80;;
64037;SDS011;54641;50.168;8.492;2022-12-24T05:10:33;11.30;;;1.80;;
64037;SDS011;54641;50.168;8.492;2022-12-24T05:13:03;8.70;;;1.50;;
64037;SDS011;54641;50.168;8.492;2022-12-24T05:15:33;8.00;;;2.20;;
64037;SDS011;54641;50.168;8.492;2022-12-24T05:18:04;11.00;;;2.10;;
64037;SDS011;54641;50.168;8.492;2022-12-24T05:20:35;9.70;;;1.40;;
64037;SDS011;54641;50.168;8.492;2022-12-24T05:23:05;8.70;;;1.90;;
64037;SDS011;54641;50.168;8.492;2022-12-24T05:25:54;12.80;;;2.30;;
64037;SDS011;54641;50.168;8.492;2022-12-24T05:28:42;11.90;;;3.50;;
64037;SDS011;54641;50.168;8.492;2022-12-24T05:31:12;9.00;;;1.90;;
64037;SDS011;54641;50.168;8.492;2022-12-24T05:33:43;16.80;;;2.20;;
64037;SDS011;54641;50.168;8.492;2022-12-24T05:36:14;10.20;;;2.20;;
64037;SDS011;54641;50.168;8.492;2022-12-24T05:38:44;15.70;;;2.20;;
64037;SDS011;54641;50.168;8.492;2022-12-24T05:41:15;11.00;;;2.00;;
64037;SDS011;54641;50.168;8.492;2022-12-24T05:43:45;9.00;;;2.30;;
64037;SDS011;54641;50.168;8.492;2022-12-24T05:46:17;12.30;;;2.20;;
64037;SDS011;54641;50.168;8.492;2022-12-24T05:48:48;11.70;;;1.80;;
64037;SDS011;54641;50.168;8.492;2022-12-24T05:51:20;13.90;;;2.10;;
64037;SDS011;54641;50.168;8.492;2022-12-24T05:53:51;16.70;;;2.60;;
64037;SDS011;54641;50.168;8.492;2022-12-24T05:56:21;9.60;;;2.30;;
64037;SDS011;54641;50.168;8.492;2022-12-24T05:58:53;9.50;;;1.80;;
64037;SDS011;54641;50.168;8.492;2022-12-24T06:01:24;22.00;;;3.80;;
64037;SDS011;54641;50.168;8.492;2022-12-24T06:03:55;12.30;;;1.70;;
64037;SDS011;54641;50.168;8.492;2022-12-24T06:06:26;9.80;;;2.10;;
64037;SDS011;54641;50.168;8.492;2022-12-24T06:08:57;7.90;;;1.70;;
64037;SDS011;54641;50.168;8.492;2022-12-24T06:11:28;6.70;;;2.10;;
64037;SDS011;54641;50.168;8.492;2022-12-24T06:13:58;9.00;;;2.30;;
64037;SDS011;54641;50.168;8.492;2022-12-24T06:16:29;13.00;;;1.80;;
64037;SDS011;54641;50.168;8.492;2022-12-24T06:18:59;9.30;;;2.00;;
64037;SDS011;54641;50.168;8.492;2022-12-24T06:21:30;7.90;;;1.60;;
64037;SDS011;54641;50.168;8.492;2022-12-24T06:24:00;10.20;;;2.20;;
64037;SDS011;54641;50.168;8.492;2022-12-24T06:26:30;10.90;;;2.10;;
64037;SDS011;54641;50.168;8.492;2022-12-24T06:29:01;8.00;;;1.70;;
64037;SDS011;54641;50.168;8.492;2022-12-24T06:31:31;10.90;;;1.80;;
64037;SDS011;54641;50.168;8.492;2022-12-24T06:34:02;10.60;;;2.40;;
64037;SDS011;54641;50.168;8.492;2022-12-24T06:36:32;11.40;;;2.20;;
64037;SDS011;54641;50.168;8.492;2022-12-24T06:39:02;10.30;;;2.80;;
64037;SDS011;54641;50.168;8.492;2022-12-24T06:41:33;11.10;;;2.50;;
64037;SDS011;54641;50.168;8.492;2022-12-24T06:44:03;9.10;;;1.90;;
64037;SDS011;54641;50.168;8.492;2022-12-24T06:46:34;12.40;;;2.50;;
64037;SDS011;54641;50.168;8.492;2022-12-24T06:49:04;12.00;;;2.00;;
64037;SDS011;54641;50.168;8.492;2022-12-24T06:51:35;13.40;;;1.70;;
64037;SDS011;54641;50.168;8.492;2022-12-24T06:54:08;14.10;;;2.20;;
64037;SDS011;54641;50.168;8.492;2022-12-24T06:56:38;9.20;;;2.20;;
64037;SDS011;54641;50.168;8.492;2022-12-24T06:59:09;10.10;;;1.90;;
64037;SDS011;54641;50.168;8.492;2022-12-24T07:01:39;9.00;;;1.70;;
64037;SDS011;54641;50.168;8.492;2022-12-24T07:04:10;10.10;;;2.20;;
64037;SDS011;54641;50.168;8.492;2022-12-24T07:06:47;8.60;;;1.80;;
64037;SDS011;54641;50.168;8.492;2022-12-24T07:09:18;10.60;;;1.70;;
64037;SDS011;54641;50.168;8.492;2022-12-24T07:11:48;10.80;;;2.50;;
64037;SDS011;54641;50.168;8.492;2022-12-24T07:14:18;7.50;;;1.60;;
64037;SDS011;54641;50.168;8.492;2022-12-24T07:16:49;9.40;;;2.10;;
64037;SDS011;54641;50.168;8.492;2022-12-24T07:19:25;14.50;;;2.80;;
64037;SDS011;54641;50.168;8.492;2022-12-24T07:21:56;12.20;;;2.50;;
64037;SDS011;54641;50.168;8.492;2022-12-24T07:24:26;9.80;;;2.00;;
64037;SDS011;54641;50.168;8.492;2022-12-24T07:26:56;10.70;;;1.90;;
64037;SDS011;54641;50.168;8.492;2022-12-24T07:29:27;11.90;;;2.10;;
64037;SDS011;54641;50.168;8.492;2022-12-24T07:31:58;14.70;;;2.70;;
64037;SDS011;54641;50.168;8.492;2022-12-24T07:34:28;15.90;;;2.30;;
64037;SDS011;54641;50.168;8.492;2022-12-24T07:36:58;14.60;;;2.60;;
64037;SDS011;54641;50.168;8.492;2022-12-24T07:39:29;10.80;;;2.70;;
64037;SDS011;54641;50.168;8.492;2022-12-24T07:41:59;11.70;;;2.00;;
64037;SDS011;54641;50.168;8.492;2022-12-24T07:44:32;6.20;;;1.50;;
64037;SDS011;54641;50.168;8.492;2022-12-24T07:47:02;14.30;;;2.20;;
64037;SDS011;54641;50.168;8.492;2022-12-24T07:49:33;10.30;;;2.20;;
64037;SDS011;54641;50.168;8.492;2022-12-24T07:52:04;11.80;;;2.80;;
64037;SDS011;54641;50.168;8.492;2022-12-24T07:54:34;12.00;;;2.70;;
64037;SDS011;54641;50.168;8.492;2022-12-24T07:57:04;12.90;;;1.90;;
64037;SDS011;54641;50.168;8.492;2022-12-24T07:59:35;12.50;;;2.90;;
64037;SDS011;54641;50.168;8.492;2022-12-24T08:02:07;11.00;;;2.20;;
64037;SDS011;54641;50.168;8.492;2022-12-24T08:04:45;11.80;;;2.60;;
64037;SDS011;54641;50.168;8.492;2022-12-24T08:07:15;11.80;;;1.80;;
64037;SDS011;54641;50.168;8.492;2022-12-24T08:09:45;10.70;;;2.30;;
64037;SDS011;54641;50.168;8.492;2022-12-24T08:12:16;14.50;;;2.50;;
64037;SDS011;54641;50.168;8.492;2022-12-24T08:14:46;13.00;;;2.40;;
64037;SDS011;54641;50.168;8.492;2022-12-24T08:17:16;9.80;;;2.10;;
64037;SDS011;54641;50.168;8.492;2022-12-24T08:19:46;8.70;;;1.60;;
64037;SDS011;54641;50.168;8.492;2022-12-24T08:22:17;19.70;;;2.60;;
64037;SDS011;54641;50.168;8.492;2022-12-24T08:24:47;10.60;;;2.00;;
64037;SDS011;54641;50.168;8.492;2022-12-24T08:27:18;10.80;;;2.40;;
64037;SDS011;54641;50.168;8.492;2022-12-24T08:29:49;9.70;;;2.50;;
64037;SDS011;54641;50.168;8.492;2022-12-24T08:32:20;7.60;;;1.80;;
64037;SDS011;54641;50.168;8.492;2022-12-24T08:34:51;10.90;;;2.00;;
64037;SDS011;54641;50.168;8.492;2022-12-24T08:37:21;15.10;;;2.10;;
64037;SDS011;54641;50.168;8.492;2022-12-24T08:39:52;17.80;;;3.40;;
64037;SDS011;54641;50.168;8.492;2022-12-24T08:42:22;13.00;;;2.60;;
64037;SDS011;54641;50.168;8.492;2022-12-24T08:44:53;13.60;;;3.30;;
64037;SDS011;54641;50.168;8.492;2022-12-24T08:47:23;13.60;;;3.50;;
64037;SDS011;54641;50.168;8.492;2022-12-24T08:49:54;12.10;;;2.70;;
64037;SDS011;54641;50.168;8.492;2022-12-24T08:52:24;12.00;;;2.50;;
64037;SDS011;54641;50.168;8.492;2022-12-24T08:54:54;12.80;;;2.90;;
64037;SDS011;54641;50.168;8.492;2022-12-24T08:57:25;10.60;;;2.40;;
64037;SDS011;54641;50.168;8.492;2022-12-24T08:59:56;14.20;;;3.20;;
64037;SDS011;54641;50.168;8.492;2022-12-24T09:02:26;13.30;;;2.30;;
64037;SDS011;54641;50.168;8.492;2022-12-24T09:04:57;13.60;;;2.90;;
64037;SDS011;54641;50.168;8.492;2022-12-24T09:07:27;14.30;;;2.60;;
64037;SDS011;54641;50.168;8.492;2022-12-24T09:09:58;15.80;;;2.70;;
64037;SDS011;54641;50.168;8.492;2022-12-24T09:12:28;16.40;;;3.20;;
64037;SDS011;54641;50.168;8.492;2022-12-24T09:14:59;15.80;;;3.70;;
64037;SDS011;54641;50.168;8.492;2022-12-24T09:20:03;13.60;;;3.30;;
64037;SDS011;54641;50.168;8.492;2022-12-24T09:22:36;12.60;;;3.20;;
64037;SDS011;54641;50.168;8.492;2022-12-24T09:25:09;11.60;;;2.70;;
64037;SDS011;54641;50.168;8.492;2022-12-24T09:27:41;11.70;;;2.40;;
64037;SDS011;54641;50.168;8.492;2022-12-24T09:30:14;13.30;;;2.70;;
64037;SDS011;54641;50.168;8.492;2022-12-24T09:35:16;18.20;;;3.70;;
64037;SDS011;54641;50.168;8.492;2022-12-24T09:37:50;16.20;;;3.50;;
64037;SDS011;54641;50.168;8.492;2022-12-24T09:40:32;14.30;;;2.70;;
64037;SDS011;54641;50.168;8.492;2022-12-24T09:43:10;11.30;;;3.10;;
64037;SDS011;54641;50.168;8.492;2022-12-24T09:45:47;15.40;;;3.90;;
64037;SDS011;54641;50.168;8.492;2022-12-24T09:48:23;12.80;;;5.20;;
64037;SDS011;54641;50.168;8.492;2022-12-24T09:50:57;15.60;;;3.80;;
64037;SDS011;54641;50.168;8.492;2022-12-24T09:53:34;11.60;;;2.50;;
64037;SDS011;54641;50.168;8.492;2022-12-24T09:56:12;18.90;;;4.80;;
64037;SDS011;54641;50.168;8.492;2022-12-24T09:58:48;11.20;;;3.00;;
64037;SDS011;54641;50.168;8.492;2022-12-24T10:01:22;12.10;;;3.10;;
64037;SDS011;54641;50.168;8.492;2022-12-24T10:03:54;12.40;;;2.50;;
64037;SDS011;54641;50.168;8.492;2022-12-24T10:06:28;14.70;;;2.70;;
64037;SDS011;54641;50.168;8.492;2022-12-24T10:09:11;16.00;;;2.70;;
64037;SDS011;54641;50.168;8.492;2022-12-24T10:11:47;13.50;;;2.60;;
64037;SDS011;54641;50.168;8.492;2022-12-24T10:21:58;13.60;;;2.60;;
64037;SDS011;54641;50.168;8.492;2022-12-24T10:24:35;11.20;;;3.10;;
64037;SDS011;54641;50.168;8.492;2022-12-24T10:27:18;15.40;;;3.00;;
64037;SDS011;54641;50.168;8.492;2022-12-24T10:29:50;16.10;;;3.10;;
64037;SDS011;54641;50.168;8.492;2022-12-24T10:32:24;14.60;;;3.90;;
64037;SDS011;54641;50.168;8.492;2022-12-24T10:34:57;13.80;;;3.00;;
64037;SDS011;54641;50.168;8.492;2022-12-24T10:39:58;11.70;;;2.80;;
64037;SDS011;54641;50.168;8.492;2022-12-24T10:42:31;15.90;;;2.80;;
64037;SDS011;54641;50.168;8.492;2022-12-24T10:45:14;15.30;;;4.40;;
64037;SDS011;54641;50.168;8.492;2022-12-24T10:47:46;15.10;;;3.70;;
64037;SDS011;54641;50.168;8.492;2022-12-24T10:50:20;12.50;;;3.30;;
64037;SDS011;54641;50.168;8.492;2022-12-24T10:52:58;17.10;;;3.40;;
64037;SDS011;54641;50.168;8.492;2022-12-24T10:55:32;11.60;;;3.10;;
64037;SDS011;54641;50.168;8.492;2022-12-24T10:58:03;18.40;;;4.40;;
64037;SDS011;54641;50.168;8.492;2022-12-24T11:00:35;13.20;;;3.20;;
64037;SDS011;54641;50.168;8.492;2022-12-24T11:03:15;19.90;;;5.50;;
64037;SDS011;54641;50.168;8.492;2022-12-24T11:06:10;16.80;;;4.40;;
64037;SDS011;54641;50.168;8.492;2022-12-24T11:08:42;14.00;;;4.10;;
64037;SDS011;54641;50.168;8.492;2022-12-24T11:11:14;14.70;;;4.10;;
64037;SDS011;54641;50.168;8.492;2022-12-24T11:13:51;18.50;;;4.60;;
64037;SDS011;54641;50.168;8.492;2022-12-24T11:16:24;18.10;;;3.40;;
64037;SDS011;54641;50.168;8.492;2022-12-24T11:18:58;22.10;;;4.30;;
64037;SDS011;54641;50.168;8.492;2022-12-24T11:21:31;13.90;;;3.90;;
64037;SDS011;54641;50.168;8.492;2022-12-24T11:24:04;15.30;;;4.50;;
64037;SDS011;54641;50.168;8.492;2022-12-24T11:26:42;15.30;;;5.30;;
64037;SDS011;54641;50.168;8.492;2022-12-24T11:29:13;15.10;;;4.20;;
64037;SDS011;54641;50.168;8.492;2022-12-24T11:31:48;13.60;;;3.60;;
64037;SDS011;54641;50.168;8.492;2022-12-24T11:34:24;17.20;;;4.90;;
64037;SDS011;54641;50.168;8.492;2022-12-24T11:37:06;17.90;;;5.80;;
64037;SDS011;54641;50.168;8.492;2022-12-24T11:39:42;13.80;;;4.00;;
64037;SDS011;54641;50.168;8.492;2022-12-24T11:42:26;12.00;;;3.20;;
64037;SDS011;54641;50.168;8.492;2022-12-24T11:44:58;13.40;;;4.30;;
64037;SDS011;54641;50.168;8.492;2022-12-24T11:47:32;17.40;;;4.50;;
64037;SDS011;54641;50.168;8.492;2022-12-24T11:50:23;12.50;;;3.60;;
64037;SDS011;54641;50.168;8.492;2022-12-24T11:52:58;14.10;;;3.90;;
64037;SDS011;54641;50.168;8.492;2022-12-24T11:55:39;11.70;;;1.90;;
64037;SDS011;54641;50.168;8.492;2022-12-24T11:58:15;9.90;;;2.10;;
64037;SDS011;54641;50.168;8.492;2022-12-24T12:00:49;12.40;;;2.60;;
64037;SDS011;54641;50.168;8.492;2022-12-24T12:03:30;9.10;;;2.50;;
64037;SDS011;54641;50.168;8.492;2022-12-24T12:06:05;10.90;;;2.10;;
64037;SDS011;54641;50.168;8.492;2022-12-24T12:08:39;9.70;;;2.00;;
64037;SDS011;54641;50.168;8.492;2022-12-24T12:11:11;11.10;;;2.20;;
64037;SDS011;54641;50.168;8.492;2022-12-24T12:13:42;11.20;;;2.70;;
64037;SDS011;54641;50.168;8.492;2022-12-24T12:16:16;10.80;;;2.70;;
64037;SDS011;54641;50.168;8.492;2022-12-24T12:18:50;13.50;;;2.90;;
64037;SDS011;54641;50.168;8.492;2022-12-24T12:21:23;11.20;;;3.20;;
64037;SDS011;54641;50.168;8.492;2022-12-24T12:23:55;13.00;;;3.00;;
64037;SDS011;54641;50.168;8.492;2022-12-24T12:26:27;14.30;;;3.30;;
64037;SDS011;54641;50.168;8.492;2022-12-24T12:29:00;14.30;;;4.00;;
64037;SDS011;54641;50.168;8.492;2022-12-24T12:31:33;7.80;;;2.90;;
64037;SDS011;54641;50.168;8.492;2022-12-24T12:34:05;10.30;;;3.20;;
64037;SDS011;54641;50.168;8.492;2022-12-24T12:36:41;13.70;;;3.10;;
64037;SDS011;54641;50.168;8.492;2022-12-24T12:39:13;15.70;;;3.10;;
64037;SDS011;54641;50.168;8.492;2022-12-24T12:41:47;10.90;;;2.80;;
64037;SDS011;54641;50.168;8.492;2022-12-24T12:44:42;9.00;;;2.90;;
64037;SDS011;54641;50.168;8.492;2022-12-24T12:47:25;11.80;;;3.00;;
64037;SDS011;54641;50.168;8.492;2022-12-24T12:50:15;12.50;;;3.80;;
64037;SDS011;54641;50.168;8.492;2022-12-24T12:52:52;10.30;;;2.90;;
64037;SDS011;54641;50.168;8.492;2022-12-24T12:55:30;9.50;;;2.70;;
64037;SDS011;54641;50.168;8.492;2022-12-24T12:58:07;11.20;;;3.50;;
64037;SDS011;54641;50.168;8.492;2022-12-24T13:00:40;12.50;;;3.30;;
64037;SDS011;54641;50.168;8.492;2022-12-24T13:03:21;9.90;;;3.50;;
64037;SDS011;54641;50.168;8.492;2022-12-24T13:06:05;19.30;;;4.00;;
64037;SDS011;54641;50.168;8.492;2022-12-24T13:08:51;12.20;;;3.40;;
64037;SDS011;54641;50.168;8.492;2022-12-24T13:11:35;12.40;;;3.60;;
64037;SDS011;54641;50.168;8.492;2022-12-24T13:20:09;14.60;;;3.20;;
64037;SDS011;54641;50.168;8.492;2022-12-24T13:22:52;7.50;;;2.20;;
64037;SDS011;54641;50.168;8.492;2022-12-24T13:25:27;11.60;;;2.90;;
64037;SDS011;54641;50.168;8.492;2022-12-24T13:30:46;9.60;;;2.30;;
64037;SDS011;54641;50.168;8.492;2022-12-24T13:36:18;14.70;;;2.80;;
64037;SDS011;54641;50.168;8.492;2022-12-24T13:38:48;11.80;;;2.50;;
64037;SDS011;54641;50.168;8.492;2022-12-24T13:41:45;11.60;;;2.60;;
64037;SDS011;54641;50.168;8.492;2022-12-24T13:44:23;8.80;;;2.00;;
64037;SDS011;54641;50.168;8.492;2022-12-24T13:47:00;8.70;;;2.10;;
64037;SDS011;54641;50.168;8.492;2022-12-24T13:49:34;10.20;;;2.20;;
64037;SDS011;54641;50.168;8.492;2022-12-24T13:52:12;7.50;;;2.50;;
64037;SDS011;54641;50.168;8.492;2022-12-24T13:54:47;9.20;;;2.00;;
64037;SDS011;54641;50.168;8.492;2022-12-24T13:57:34;10.30;;;2.40;;
64037;SDS011;54641;50.168;8.492;2022-12-24T14:00:24;8.50;;;2.20;;
64037;SDS011;54641;50.168;8.492;2022-12-24T14:03:06;10.50;;;2.20;;
64037;SDS011;54641;50.168;8.492;2022-12-24T14:05:49;8.50;;;2.50;;
64037;SDS011;54641;50.168;8.492;2022-12-24T14:08:34;14.70;;;2.50;;
64037;SDS011;54641;50.168;8.492;2022-12-24T14:11:09;10.30;;;2.20;;
64037;SDS011;54641;50.168;8.492;2022-12-24T14:16:55;10.40;;;2.30;;
64037;SDS011;54641;50.168;8.492;2022-12-24T14:19:31;11.50;;;2.00;;
64037;SDS011;54641;50.168;8.492;2022-12-24T14:22:16;9.30;;;2.10;;
64037;SDS011;54641;50.168;8.492;2022-12-24T14:24:52;9.70;;;2.40;;
64037;SDS011;54641;50.168;8.492;2022-12-24T14:27:26;13.40;;;2.40;;
64037;SDS011;54641;50.168;8.492;2022-12-24T14:30:02;12.80;;;3.30;;
64037;SDS011;54641;50.168;8.492;2022-12-24T14:32:36;13.10;;;2.50;;
64037;SDS011;54641;50.168;8.492;2022-12-24T14:35:08;15.20;;;2.20;;
64037;SDS011;54641;50.168;8.492;2022-12-24T14:37:46;13.70;;;2.70;;
64037;SDS011;54641;50.168;8.492;2022-12-24T14:40:19;8.70;;;2.80;;
64037;SDS011;54641;50.168;8.492;2022-12-24T14:42:55;13.90;;;2.50;;
64037;SDS011;54641;50.168;8.492;2022-12-24T14:45:36;13.30;;;2.90;;
64037;SDS011;54641;50.168;8.492;2022-12-24T14:48:12;13.10;;;3.20;;
64037;SDS011;54641;50.168;8.492;2022-12-24T14:50:53;13.40;;;2.10;;
64037;SDS011;54641;50.168;8.492;2022-12-24T14:53:33;9.10;;;3.20;;
64037;SDS011;54641;50.168;8.492;2022-12-24T14:56:16;14.60;;;2.70;;
64037;SDS011;54641;50.168;8.492;2022-12-24T14:58:48;13.60;;;3.50;;
64037;SDS011;54641;50.168;8.492;2022-12-24T15:01:19;13.60;;;3.80;;
64037;SDS011;54641;50.168;8.492;2022-12-24T15:04:01;11.20;;;4.40;;
64037;SDS011;54641;50.168;8.492;2022-12-24T15:06:34;8.90;;;2.80;;
64037;SDS011;54641;50.168;8.492;2022-12-24T15:09:05;14.10;;;4.70;;
64037;SDS011;54641;50.168;8.492;2022-12-24T15:11:43;12.40;;;2.60;;
64037;SDS011;54641;50.168;8.492;2022-12-24T15:14:14;12.70;;;2.90;;
64037;SDS011;54641;50.168;8.492;2022-12-24T15:16:49;15.50;;;3.50;;
64037;SDS011;54641;50.168;8.492;2022-12-24T15:19:23;15.10;;;4.20;;
64037;SDS011;54641;50.168;8.492;2022-12-24T15:21:56;14.50;;;3.60;;
64037;SDS011;54641;50.168;8.492;2022-12-24T15:24:28;12.20;;;2.70;;
64037;SDS011;54641;50.168;8.492;2022-12-24T15:27:00;15.60;;;3.10;;
64037;SDS011;54641;50.168;8.492;2022-12-24T15:29:42;13.10;;;2.90;;
64037;SDS011;54641;50.168;8.492;2022-12-24T15:32:14;18.30;;;3.50;;
64037;SDS011;54641;50.168;8.492;2022-12-24T15:34:46;13.10;;;3.40;;
64037;SDS011;54641;50.168;8.492;2022-12-24T15:37:18;10.80;;;3.50;;
64037;SDS011;54641;50.168;8.492;2022-12-24T15:39:52;14.10;;;3.60;;
64037;SDS011;54641;50.168;8.492;2022-12-24T15:42:24;16.90;;;3.00;;
64037;SDS011;54641;50.168;8.492;2022-12-24T15:44:57;11.40;;;3.00;;
64037;SDS011;54641;50.168;8.492;2022-12-24T15:47:30;16.10;;;4.10;;
64037;SDS011;54641;50.168;8.492;2022-12-24T15:50:08;18.90;;;3.80;;